createdAt,value
2017-08-20T00:00:23.605Z,120.3
2017-08-20T00:01:24.391Z,125.2
2017-08-20T00:02:25.139Z,123.8
2017-08-20T00:03:25.869Z,132.9
2017-08-20T00:04:26.954Z,145.1
2017-08-20T00:05:27.684Z,131.8
2017-08-20T00:06:28.489Z,147.1
2017-08-20T00:07:29.216Z,158.5
2017-08-20T00:08:29.952Z,140.3
2017-08-20T00:09:30.738Z,143.2
2017-08-20T00:10:31.476Z,133.9
2017-08-20T00:11:32.220Z,140.6
2017-08-20T00:12:33.023Z,142.1
2017-08-20T00:13:33.829Z,143.4
2017-08-20T00:14:34.714Z,126.2
2017-08-20T00:15:35.445Z,124.1
2017-08-20T00:16:36.178Z,155.8
2017-08-20T00:17:36.929Z,140.2
2017-08-20T00:18:37.666Z,146.4
2017-08-20T00:19:38.702Z,154.4
2017-08-20T00:20:39.428Z,138.7
2017-08-20T00:21:40.168Z,147.9
2017-08-20T00:22:40.909Z,145.3
2017-08-20T00:23:41.639Z,143.5
2017-08-20T00:24:42.848Z,129.2
2017-08-20T00:25:43.579Z,154.0
2017-08-20T00:26:44.320Z,140.9
2017-08-20T00:27:45.079Z,156.9
2017-08-20T00:28:45.868Z,152.9
2017-08-20T00:29:47.017Z,217.7
2017-08-20T00:30:47.751Z,209.8
2017-08-20T00:31:48.539Z,147.1
2017-08-20T00:32:49.275Z,148.8
2017-08-20T00:33:50.077Z,154.8
2017-08-20T00:34:51.210Z,145.5
2017-08-20T00:35:52.010Z,159.8
2017-08-20T00:36:52.819Z,152.0
2017-08-20T00:37:53.571Z,138.9
2017-08-20T00:38:54.375Z,155.9
2017-08-20T00:39:55.169Z,149.0
2017-08-20T00:40:55.964Z,170.9
2017-08-20T00:41:56.778Z,167.6
2017-08-20T00:42:57.518Z,146.3
2017-08-20T00:43:58.332Z,131.0
2017-08-20T00:44:59.467Z,145.6
2017-08-20T00:46:00.198Z,148.1
2017-08-20T00:47:00.936Z,132.3
2017-08-20T00:48:01.667Z,123.4
2017-08-20T00:49:02.400Z,150.6
2017-08-20T00:50:03.475Z,148.0
2017-08-20T00:51:04.246Z,159.8
2017-08-20T00:52:05.038Z,168.5
2017-08-20T00:53:05.772Z,120.5
2017-08-20T00:54:06.603Z,127.3
2017-08-20T00:55:07.731Z,133.4
2017-08-20T00:56:08.551Z,135.7
2017-08-20T00:57:09.322Z,144.9
2017-08-20T00:58:10.147Z,127.6
2017-08-20T00:59:10.957Z,136.7
2017-08-20T01:00:12.066Z,145.6
2017-08-20T01:01:12.850Z,134.0
2017-08-20T01:02:13.647Z,122.9
2017-08-20T01:03:14.470Z,117.7
2017-08-20T01:04:15.200Z,122.6
2017-08-20T01:05:16.019Z,132.7
2017-08-20T01:06:16.769Z,133.8
2017-08-20T01:07:17.559Z,133.9
2017-08-20T01:08:18.654Z,123.1
2017-08-20T01:09:19.441Z,135.1
2017-08-20T01:10:20.246Z,146.0
2017-08-20T01:11:21.061Z,133.9
2017-08-20T01:12:21.869Z,151.4
2017-08-20T01:13:22.926Z,161.7
2017-08-20T01:14:23.719Z,152.0
2017-08-20T01:15:24.453Z,143.4
2017-08-20T01:16:25.152Z,151.2
2017-08-20T01:17:25.948Z,142.9
2017-08-20T01:18:26.981Z,161.7
2017-08-20T01:19:27.714Z,142.2
2017-08-20T01:20:28.454Z,155.6
2017-08-20T01:21:29.220Z,128.0
2017-08-20T01:22:29.953Z,151.1
2017-08-20T01:23:31.096Z,177.0
2017-08-20T01:24:31.839Z,155.9
2017-08-20T01:25:32.588Z,166.2
2017-08-20T01:26:33.267Z,151.1
2017-08-20T01:27:34.007Z,146.4
2017-08-20T01:28:35.145Z,165.4
2017-08-20T01:29:35.958Z,212.7
2017-08-20T01:30:36.691Z,212.5
2017-08-20T01:31:37.424Z,195.1
2017-08-20T01:32:38.241Z,200.7
2017-08-20T01:33:38.977Z,161.5
2017-08-20T01:34:39.789Z,175.9
2017-08-20T01:35:40.599Z,171.2
2017-08-20T01:36:41.409Z,159.1
2017-08-20T01:37:42.218Z,183.1
2017-08-20T01:38:43.011Z,180.5
2017-08-20T01:39:43.798Z,170.0
2017-08-20T01:40:44.610Z,187.6
2017-08-20T01:41:45.409Z,147.4
2017-08-20T01:42:46.228Z,133.7
2017-08-20T01:43:47.339Z,155.6
2017-08-20T01:44:48.147Z,144.6
2017-08-20T01:45:48.889Z,166.4
2017-08-20T01:46:49.645Z,159.5
2017-08-20T01:47:50.426Z,159.9
2017-08-20T01:48:51.578Z,159.2
2017-08-20T01:49:52.308Z,225.9
2017-08-20T01:50:53.040Z,164.7
2017-08-20T01:51:53.864Z,179.8
2017-08-20T01:52:54.608Z,165.0
2017-08-20T01:53:55.699Z,156.4
2017-08-20T01:54:56.508Z,164.5
2017-08-20T01:55:57.242Z,188.9
2017-08-20T01:56:58.434Z,186.0
2017-08-20T01:57:59.147Z,197.0
2017-08-20T01:59:00.209Z,177.6
2017-08-20T02:00:01.017Z,183.6
2017-08-20T02:01:01.758Z,183.6
2017-08-20T02:02:02.495Z,160.3
2017-08-20T02:03:03.238Z,263.1
2017-08-20T02:04:03.977Z,255.5
2017-08-20T02:05:04.721Z,212.5
2017-08-20T02:06:05.508Z,176.6
2017-08-20T02:07:06.240Z,286.1
2017-08-20T02:08:07.458Z,237.5
2017-08-20T02:09:08.707Z,195.1
2017-08-20T02:10:09.566Z,174.6
2017-08-20T02:11:10.297Z,170.4
2017-08-20T02:12:11.106Z,221.2
2017-08-20T02:13:11.885Z,189.0
2017-08-20T02:14:12.616Z,215.4
2017-08-20T02:15:13.360Z,173.8
2017-08-20T02:16:14.167Z,204.0
2017-08-20T02:17:14.918Z,195.9
2017-08-20T02:18:15.708Z,205.8
2017-08-20T02:19:16.518Z,194.5
2017-08-20T02:20:17.266Z,178.8
2017-08-20T02:21:18.056Z,179.8
2017-08-20T02:22:18.786Z,175.6
2017-08-20T02:23:19.893Z,191.5
2017-08-20T02:24:20.618Z,224.3
2017-08-20T02:25:21.359Z,191.4
2017-08-20T02:26:22.177Z,177.5
2017-08-20T02:27:22.988Z,191.3
2017-08-20T02:28:23.823Z,176.5
2017-08-20T02:29:24.577Z,190.1
2017-08-20T02:30:25.311Z,157.4
2017-08-20T02:31:26.119Z,181.1
2017-08-20T02:32:26.852Z,171.5
2017-08-20T02:33:27.964Z,160.1
2017-08-20T02:34:28.760Z,170.9
2017-08-20T02:35:29.497Z,169.0
2017-08-20T02:36:30.236Z,186.7
2017-08-20T02:37:30.960Z,176.7
2017-08-20T02:38:31.837Z,174.3
2017-08-20T02:39:32.578Z,163.6
2017-08-20T02:40:33.319Z,189.1
2017-08-20T02:41:34.055Z,154.1
2017-08-20T02:42:34.787Z,163.1
2017-08-20T02:43:35.864Z,177.1
2017-08-20T02:44:36.598Z,170.5
2017-08-20T02:45:37.348Z,201.2
2017-08-20T02:46:38.093Z,183.6
2017-08-20T02:47:38.828Z,161.8
2017-08-20T02:48:39.879Z,172.6
2017-08-20T02:49:40.598Z,154.0
2017-08-20T02:50:41.359Z,163.7
2017-08-20T02:51:42.104Z,174.4
2017-08-20T02:52:42.849Z,166.7
2017-08-20T02:53:43.876Z,179.4
2017-08-20T02:54:44.607Z,181.5
2017-08-20T02:55:45.340Z,164.1
2017-08-20T02:56:46.083Z,175.8
2017-08-20T02:57:46.804Z,193.6
2017-08-20T02:58:47.906Z,180.5
2017-08-20T02:59:48.705Z,175.1
2017-08-20T03:00:49.439Z,157.3
2017-08-20T03:01:50.228Z,173.9
2017-08-20T03:02:50.969Z,183.7
2017-08-20T03:03:52.157Z,184.7
2017-08-20T03:04:52.957Z,163.6
2017-08-20T03:05:53.791Z,178.6
2017-08-20T03:06:54.524Z,155.9
2017-08-20T03:07:55.287Z,170.8
2017-08-20T03:08:56.379Z,175.2
2017-08-20T03:09:57.115Z,165.2
2017-08-20T03:10:57.866Z,174.8
2017-08-20T03:11:58.688Z,176.0
2017-08-20T03:12:59.435Z,157.1
2017-08-20T03:14:00.535Z,151.5
2017-08-20T03:15:01.264Z,173.2
2017-08-20T03:16:02.057Z,159.6
2017-08-20T03:17:02.805Z,170.7
2017-08-20T03:18:03.594Z,181.9
2017-08-20T03:19:04.691Z,164.2
2017-08-20T03:20:05.439Z,167.2
2017-08-20T03:21:06.175Z,178.0
2017-08-20T03:22:06.937Z,163.9
2017-08-20T03:23:07.695Z,161.1
2017-08-20T03:24:08.935Z,163.5
2017-08-20T03:25:09.660Z,161.8
2017-08-20T03:26:10.415Z,159.9
2017-08-20T03:27:11.154Z,168.6
2017-08-20T03:28:11.961Z,156.2
2017-08-20T03:29:13.102Z,165.3
2017-08-20T03:30:13.915Z,153.3
2017-08-20T03:31:14.657Z,161.0
2017-08-20T03:32:15.474Z,149.7
2017-08-20T03:33:16.211Z,160.8
2017-08-20T03:34:17.043Z,146.8
2017-08-20T03:35:17.760Z,148.1
2017-08-20T03:36:18.511Z,153.7
2017-08-20T03:37:19.306Z,176.9
2017-08-20T03:38:20.036Z,151.7
2017-08-20T03:39:20.877Z,151.7
2017-08-20T03:40:21.691Z,155.9
2017-08-20T03:41:22.458Z,165.1
2017-08-20T03:42:23.272Z,165.5
2017-08-20T03:43:24.012Z,161.8
2017-08-20T03:44:25.106Z,151.3
2017-08-20T03:45:25.840Z,150.8
2017-08-20T03:46:26.572Z,150.7
2017-08-20T03:47:27.316Z,169.4
2017-08-20T03:48:28.103Z,148.9
2017-08-20T03:49:29.237Z,151.4
2017-08-20T03:50:29.969Z,147.2
2017-08-20T03:51:30.731Z,156.7
2017-08-20T03:52:31.537Z,142.2
2017-08-20T03:53:32.335Z,154.1
2017-08-20T03:54:33.491Z,153.7
2017-08-20T03:55:34.239Z,146.1
2017-08-20T03:56:35.020Z,140.2
2017-08-20T03:57:35.817Z,140.8
2017-08-20T03:58:36.619Z,151.6
2017-08-20T03:59:37.457Z,142.5
2017-08-20T04:00:38.213Z,151.2
2017-08-20T04:01:39.000Z,143.3
2017-08-20T04:02:39.737Z,132.7
2017-08-20T04:03:40.496Z,131.4
2017-08-20T04:04:41.685Z,129.3
2017-08-20T04:05:42.415Z,127.3
2017-08-20T04:06:43.257Z,130.9
2017-08-20T04:07:43.988Z,121.2
2017-08-20T04:08:44.730Z,123.9
2017-08-20T04:09:45.833Z,133.8
2017-08-20T04:10:46.577Z,122.4
2017-08-20T04:11:47.309Z,122.6
2017-08-20T04:12:48.148Z,117.0
2017-08-20T04:13:48.891Z,113.5
2017-08-20T04:14:50.024Z,117.0
2017-08-20T04:15:50.771Z,116.8
2017-08-20T04:16:51.516Z,119.2
2017-08-20T04:17:52.355Z,112.7
2017-08-20T04:18:53.126Z,110.5
2017-08-20T04:19:54.270Z,112.0
2017-08-20T04:20:55.008Z,106.5
2017-08-20T04:21:55.751Z,112.8
2017-08-20T04:22:56.490Z,107.2
2017-08-20T04:23:57.224Z,103.9
2017-08-20T04:24:57.980Z,114.9
2017-08-20T04:25:58.919Z,109.7
2017-08-20T04:26:59.658Z,105.8
2017-08-20T04:28:00.401Z,100.0
2017-08-20T04:29:01.137Z,95.0
2017-08-20T04:30:01.882Z,94.4
2017-08-20T04:31:02.708Z,99.2
2017-08-20T04:32:03.474Z,90.3
2017-08-20T04:33:04.207Z,101.9
2017-08-20T04:34:04.948Z,88.6
2017-08-20T04:35:05.693Z,97.5
2017-08-20T04:36:06.787Z,95.0
2017-08-20T04:37:07.518Z,86.8
2017-08-20T04:38:08.277Z,91.7
2017-08-20T04:39:09.001Z,92.7
2017-08-20T04:40:09.727Z,93.9
2017-08-20T04:41:10.822Z,94.8
2017-08-20T04:42:11.656Z,94.5
2017-08-20T04:43:12.470Z,93.8
2017-08-20T04:44:13.258Z,95.8
2017-08-20T04:45:14.062Z,96.5
2017-08-20T04:46:15.255Z,86.3
2017-08-20T04:47:16.002Z,90.3
2017-08-20T04:48:16.815Z,99.3
2017-08-20T04:49:17.625Z,100.6
2017-08-20T04:50:18.433Z,97.6
2017-08-20T04:51:19.399Z,110.6
2017-08-20T04:52:20.201Z,97.0
2017-08-20T04:53:21.026Z,89.9
2017-08-20T04:54:21.817Z,98.4
2017-08-20T04:55:22.547Z,97.0
2017-08-20T04:56:23.577Z,92.6
2017-08-20T04:57:24.311Z,102.3
2017-08-20T04:58:25.077Z,97.4
2017-08-20T04:59:25.777Z,101.6
2017-08-20T05:00:26.589Z,105.0
2017-08-20T05:01:27.481Z,94.8
2017-08-20T05:02:28.221Z,89.0
2017-08-20T05:03:29.011Z,91.0
2017-08-20T05:04:29.788Z,78.4
2017-08-20T05:05:30.606Z,79.8
2017-08-20T05:06:31.803Z,83.9
2017-08-20T05:07:32.540Z,94.9
2017-08-20T05:08:33.288Z,91.2
2017-08-20T05:09:34.030Z,79.5
2017-08-20T05:10:34.843Z,82.5
2017-08-20T05:11:35.977Z,79.9
2017-08-20T05:12:36.805Z,79.0
2017-08-20T05:13:37.595Z,85.1
2017-08-20T05:14:38.410Z,86.3
2017-08-20T05:15:39.188Z,84.3
2017-08-20T05:16:40.068Z,78.2
2017-08-20T05:17:40.865Z,69.5
2017-08-20T05:18:41.600Z,72.2
2017-08-20T05:19:42.340Z,82.5
2017-08-20T05:20:43.087Z,78.2
2017-08-20T05:21:44.298Z,66.1
2017-08-20T05:22:45.125Z,80.0
2017-08-20T05:23:45.934Z,78.7
2017-08-20T05:24:46.671Z,69.7
2017-08-20T05:25:47.491Z,77.2
2017-08-20T05:26:48.284Z,76.4
2017-08-20T05:27:49.102Z,59.5
2017-08-20T05:28:49.842Z,69.6
2017-08-20T05:29:50.660Z,67.1
2017-08-20T05:30:51.477Z,59.8
2017-08-20T05:31:52.508Z,63.6
2017-08-20T05:32:53.252Z,66.3
2017-08-20T05:33:53.995Z,76.5
2017-08-20T05:34:54.807Z,75.5
2017-08-20T05:35:55.599Z,69.4
2017-08-20T05:36:56.679Z,71.1
2017-08-20T05:37:57.493Z,76.0
2017-08-20T05:38:58.304Z,67.1
2017-08-20T05:39:59.107Z,69.1
2017-08-20T05:40:59.863Z,61.0
2017-08-20T05:42:00.749Z,58.9
2017-08-20T05:43:01.558Z,55.3
2017-08-20T05:44:02.368Z,58.7
2017-08-20T05:45:03.168Z,65.5
2017-08-20T05:46:03.959Z,61.6
2017-08-20T05:47:05.128Z,63.5
2017-08-20T05:48:05.872Z,69.9
2017-08-20T05:49:06.588Z,53.8
2017-08-20T05:50:07.332Z,67.8
2017-08-20T05:51:08.075Z,60.8
2017-08-20T05:52:09.274Z,56.8
2017-08-20T05:53:10.087Z,59.4
2017-08-20T05:54:10.889Z,49.7
2017-08-20T05:55:11.706Z,48.6
2017-08-20T05:56:12.481Z,49.5
2017-08-20T05:57:13.631Z,45.3
2017-08-20T05:58:14.356Z,43.9
2017-08-20T05:59:15.101Z,62.5
2017-08-20T06:00:15.914Z,50.7
2017-08-20T06:01:16.660Z,47.3
2017-08-20T06:02:17.697Z,48.9
2017-08-20T06:03:18.437Z,47.1
2017-08-20T06:04:19.231Z,51.1
2017-08-20T06:05:19.971Z,48.8
2017-08-20T06:06:20.802Z,53.2
2017-08-20T06:07:21.971Z,47.9
2017-08-20T06:08:24.123Z,48.4
2017-08-20T06:09:25.815Z,50.9
2017-08-20T06:10:26.500Z,56.0
2017-08-20T06:11:27.238Z,48.2
2017-08-20T06:12:28.110Z,54.7
2017-08-20T06:13:28.851Z,88.8
2017-08-20T06:14:29.672Z,47.8
2017-08-20T06:15:30.495Z,39.3
2017-08-20T06:16:31.226Z,40.1
2017-08-20T06:17:32.267Z,38.1
2017-08-20T06:18:33.080Z,35.4
2017-08-20T06:19:33.841Z,38.2
2017-08-20T06:20:34.667Z,38.3
2017-08-20T06:21:35.427Z,40.7
2017-08-20T06:22:36.517Z,39.4
2017-08-20T06:23:38.844Z,37.4
2017-08-20T06:24:39.060Z,36.5
2017-08-20T06:25:39.805Z,30.2
2017-08-20T06:26:40.612Z,37.6
2017-08-20T06:27:41.683Z,38.8
2017-08-20T06:28:42.488Z,49.2
2017-08-20T06:29:43.224Z,34.5
2017-08-20T06:30:43.974Z,30.0
2017-08-20T06:31:44.766Z,33.2
2017-08-20T06:32:45.987Z,33.4
2017-08-20T06:33:46.730Z,35.4
2017-08-20T06:34:47.483Z,35.2
2017-08-20T06:35:48.230Z,31.3
2017-08-20T06:36:49.044Z,34.9
2017-08-20T06:37:49.861Z,39.4
2017-08-20T06:38:50.617Z,30.8
2017-08-20T06:39:51.431Z,32.3
2017-08-20T06:40:52.166Z,30.6
2017-08-20T06:41:52.911Z,30.6
2017-08-20T06:42:54.073Z,28.8
2017-08-20T06:43:54.887Z,26.1
2017-08-20T06:44:55.630Z,35.4
2017-08-20T06:45:56.429Z,26.2
2017-08-20T06:46:57.205Z,31.5
2017-08-20T06:47:58.308Z,34.2
2017-08-20T06:48:59.056Z,27.6
2017-08-20T06:49:59.800Z,24.9
2017-08-20T06:51:00.544Z,28.1
2017-08-20T06:52:01.322Z,33.3
2017-08-20T06:53:02.426Z,32.2
2017-08-20T06:54:03.166Z,32.0
2017-08-20T06:55:03.982Z,26.7
2017-08-20T06:56:04.833Z,32.1
2017-08-20T06:57:05.553Z,30.7
2017-08-20T06:58:06.800Z,28.5
2017-08-20T06:59:07.588Z,36.6
2017-08-20T07:00:08.327Z,32.8
2017-08-20T07:01:09.067Z,29.6
2017-08-20T07:02:09.808Z,26.5
2017-08-20T07:03:10.550Z,37.7
2017-08-20T07:04:11.316Z,35.1
2017-08-20T07:05:12.417Z,33.4
2017-08-20T07:06:13.169Z,33.4
2017-08-20T07:07:13.988Z,25.4
2017-08-20T07:08:14.775Z,31.6
2017-08-20T07:09:15.579Z,35.4
2017-08-20T07:10:16.721Z,38.5
2017-08-20T07:11:17.466Z,32.5
2017-08-20T07:12:18.211Z,34.0
2017-08-20T07:13:19.027Z,35.6
2017-08-20T07:14:19.756Z,28.3
2017-08-20T07:15:20.570Z,34.8
2017-08-20T07:16:21.374Z,29.1
2017-08-20T07:17:22.129Z,35.7
2017-08-20T07:18:22.911Z,29.5
2017-08-20T07:19:23.736Z,40.4
2017-08-20T07:20:24.831Z,35.5
2017-08-20T07:21:25.575Z,37.9
2017-08-20T07:22:26.317Z,43.9
2017-08-20T07:23:27.061Z,39.3
2017-08-20T07:24:27.811Z,36.7
2017-08-20T07:25:28.982Z,38.8
2017-08-20T07:26:29.797Z,33.7
2017-08-20T07:27:30.537Z,35.8
2017-08-20T07:28:31.290Z,43.2
2017-08-20T07:29:32.032Z,36.9
2017-08-20T07:30:33.166Z,31.6
2017-08-20T07:31:33.900Z,42.0
2017-08-20T07:32:34.686Z,37.4
2017-08-20T07:33:35.435Z,28.5
2017-08-20T07:34:36.166Z,30.8
2017-08-20T07:35:37.226Z,36.2
2017-08-20T07:36:38.045Z,32.9
2017-08-20T07:37:38.860Z,29.4
2017-08-20T07:38:39.618Z,29.7
2017-08-20T07:39:40.412Z,32.2
2017-08-20T07:40:41.685Z,30.1
2017-08-20T07:41:42.434Z,22.4
2017-08-20T07:42:43.246Z,27.2
2017-08-20T07:43:44.093Z,31.2
2017-08-20T07:44:44.825Z,26.6
2017-08-20T07:45:45.927Z,27.9
2017-08-20T07:46:46.669Z,29.6
2017-08-20T07:47:47.497Z,32.2
2017-08-20T07:48:48.286Z,25.2
2017-08-20T07:49:49.035Z,25.6
2017-08-20T07:50:50.191Z,20.6
2017-08-20T07:51:50.928Z,24.3
2017-08-20T07:52:51.766Z,21.2
2017-08-20T07:53:52.524Z,27.5
2017-08-20T07:54:53.329Z,27.7
2017-08-20T07:55:54.481Z,22.2
2017-08-20T07:56:55.288Z,22.8
2017-08-20T07:57:56.026Z,23.7
2017-08-20T07:58:56.781Z,21.8
2017-08-20T07:59:57.520Z,24.4
2017-08-20T08:00:58.299Z,27.1
2017-08-20T08:01:59.090Z,26.2
2017-08-20T08:02:59.837Z,20.3
2017-08-20T08:04:00.661Z,24.1
2017-08-20T08:05:01.531Z,20.4
2017-08-20T08:06:02.274Z,20.3
2017-08-20T08:07:03.073Z,22.0
2017-08-20T08:08:03.822Z,22.3
2017-08-20T08:09:04.647Z,17.2
2017-08-20T08:10:05.788Z,19.8
2017-08-20T08:11:06.610Z,17.7
2017-08-20T08:12:07.347Z,18.1
2017-08-20T08:13:08.087Z,20.5
2017-08-20T08:14:08.835Z,16.1
2017-08-20T08:15:09.685Z,13.0
2017-08-20T08:16:10.493Z,17.7
2017-08-20T08:17:11.344Z,19.3
2017-08-20T08:18:12.169Z,20.4
2017-08-20T08:19:12.957Z,18.7
2017-08-20T08:20:14.012Z,20.6
2017-08-20T08:21:14.823Z,18.4
2017-08-20T08:22:15.583Z,20.3
2017-08-20T08:23:16.403Z,15.7
2017-08-20T08:24:17.146Z,16.2
2017-08-20T08:25:18.336Z,15.3
2017-08-20T08:26:19.089Z,17.9
2017-08-20T08:27:19.831Z,23.5
2017-08-20T08:28:20.573Z,18.1
2017-08-20T08:29:21.325Z,16.7
2017-08-20T08:30:22.368Z,13.4
2017-08-20T08:31:23.198Z,15.0
2017-08-20T08:32:24.000Z,18.5
2017-08-20T08:33:24.757Z,17.0
2017-08-20T08:34:25.574Z,17.7
2017-08-20T08:35:26.438Z,16.3
2017-08-20T08:36:27.229Z,24.5
2017-08-20T08:37:27.978Z,14.3
2017-08-20T08:38:28.781Z,16.3
2017-08-20T08:39:29.545Z,18.8
2017-08-20T08:40:30.336Z,19.8
2017-08-20T08:41:31.378Z,13.2
2017-08-20T08:42:32.199Z,20.0
2017-08-20T08:43:32.997Z,17.0
2017-08-20T08:44:33.782Z,10.9
2017-08-20T08:45:34.612Z,11.2
2017-08-20T08:46:35.736Z,17.2
2017-08-20T08:47:36.543Z,18.8
2017-08-20T08:48:37.300Z,15.5
2017-08-20T08:49:38.108Z,15.0
2017-08-20T08:50:38.918Z,17.7
2017-08-20T08:51:40.081Z,19.2
2017-08-20T08:52:40.829Z,17.6
2017-08-20T08:53:41.566Z,19.4
2017-08-20T08:54:42.315Z,14.1
2017-08-20T08:55:43.059Z,15.3
2017-08-20T08:56:44.311Z,14.1
2017-08-20T08:57:45.053Z,12.9
2017-08-20T08:58:45.802Z,9.7
2017-08-20T08:59:46.620Z,13.1
2017-08-20T09:00:47.368Z,13.2
2017-08-20T09:01:48.481Z,13.2
2017-08-20T09:02:49.240Z,14.5
2017-08-20T09:03:49.989Z,16.7
2017-08-20T09:04:50.772Z,10.4
2017-08-20T09:05:51.529Z,14.3
2017-08-20T09:06:52.625Z,19.0
2017-08-20T09:07:53.431Z,11.8
2017-08-20T09:08:54.180Z,11.1
2017-08-20T09:09:54.918Z,10.4
2017-08-20T09:10:55.729Z,13.0
2017-08-20T09:11:56.596Z,12.3
2017-08-20T09:12:57.353Z,14.3
2017-08-20T09:13:58.172Z,15.8
2017-08-20T09:14:58.940Z,9.7
2017-08-20T09:15:59.676Z,13.8
2017-08-20T09:17:00.732Z,9.5
2017-08-20T09:18:01.537Z,15.3
2017-08-20T09:19:02.297Z,13.6
2017-08-20T09:20:03.111Z,7.3
2017-08-20T09:21:03.853Z,17.3
2017-08-20T09:22:05.082Z,15.9
2017-08-20T09:23:05.835Z,12.8
2017-08-20T09:24:06.668Z,12.8
2017-08-20T09:25:07.476Z,14.3
2017-08-20T09:26:08.226Z,11.5
2017-08-20T09:27:09.320Z,13.1
2017-08-20T09:28:10.056Z,11.8
2017-08-20T09:29:10.803Z,13.9
2017-08-20T09:30:11.548Z,15.1
2017-08-20T09:31:12.293Z,14.3
2017-08-20T09:32:13.386Z,13.1
2017-08-20T09:33:14.132Z,10.5
2017-08-20T09:34:14.938Z,10.6
2017-08-20T09:35:15.691Z,11.5
2017-08-20T09:36:16.436Z,11.6
2017-08-20T09:37:17.326Z,16.1
2017-08-20T09:38:18.122Z,11.1
2017-08-20T09:39:18.951Z,13.7
2017-08-20T09:40:19.686Z,14.1
2017-08-20T09:41:20.428Z,11.2
2017-08-20T09:42:21.480Z,13.7
2017-08-20T09:43:22.289Z,9.1
2017-08-20T09:44:23.027Z,10.0
2017-08-20T09:45:23.768Z,13.6
2017-08-20T09:46:24.508Z,14.9
2017-08-20T09:47:25.672Z,11.3
2017-08-20T09:48:26.423Z,13.0
2017-08-20T09:49:27.239Z,16.6
2017-08-20T09:50:28.051Z,17.3
2017-08-20T09:51:28.794Z,13.8
2017-08-20T09:52:29.711Z,11.0
2017-08-20T09:53:30.453Z,15.7
2017-08-20T09:54:31.147Z,13.4
2017-08-20T09:55:31.889Z,9.2
2017-08-20T09:56:32.628Z,16.0
2017-08-20T09:57:33.735Z,17.7
2017-08-20T09:58:34.559Z,20.2
2017-08-20T09:59:35.376Z,14.2
2017-08-20T10:00:36.181Z,14.9
2017-08-20T10:01:36.922Z,14.2
2017-08-20T10:02:37.757Z,15.6
2017-08-20T10:03:38.505Z,10.5
2017-08-20T10:04:39.330Z,12.9
2017-08-20T10:05:40.076Z,10.4
2017-08-20T10:06:40.832Z,12.5
2017-08-20T10:07:41.815Z,10.2
2017-08-20T10:08:42.611Z,9.2
2017-08-20T10:09:43.388Z,10.8
2017-08-20T10:10:44.180Z,13.2
2017-08-20T10:11:44.927Z,10.0
2017-08-20T10:12:45.967Z,8.7
2017-08-20T10:13:46.710Z,10.1
2017-08-20T10:14:47.458Z,8.5
2017-08-20T10:15:48.209Z,11.2
2017-08-20T10:16:48.945Z,9.4
2017-08-20T10:17:49.695Z,7.8
2017-08-20T10:18:50.451Z,9.1
2017-08-20T10:19:51.267Z,6.3
2017-08-20T10:20:52.022Z,8.1
2017-08-20T10:21:53.058Z,7.6
2017-08-20T10:22:53.815Z,9.0
2017-08-20T10:23:54.640Z,9.1
2017-08-20T10:24:55.373Z,7.1
2017-08-20T10:25:56.118Z,7.2
2017-08-20T10:26:57.220Z,11.3
2017-08-20T10:27:57.969Z,8.0
2017-08-20T10:28:58.779Z,9.6
2017-08-20T10:29:59.519Z,7.9
2017-08-20T10:31:00.275Z,7.0
2017-08-20T10:32:01.067Z,7.3
2017-08-20T10:33:01.816Z,6.3
2017-08-20T10:34:02.879Z,6.3
2017-08-20T10:35:03.686Z,7.4
2017-08-20T10:36:04.427Z,7.2
2017-08-20T10:37:05.180Z,6.5
2017-08-20T10:38:05.948Z,8.4
2017-08-20T10:39:06.687Z,7.9
2017-08-20T10:40:07.745Z,13.3
2017-08-20T10:41:08.557Z,9.9
2017-08-20T10:42:09.301Z,6.9
2017-08-20T10:43:10.141Z,7.3
2017-08-20T10:44:10.896Z,9.6
2017-08-20T10:45:11.997Z,8.0
2017-08-20T10:46:12.743Z,7.4
2017-08-20T10:47:13.538Z,8.8
2017-08-20T10:48:14.368Z,10.9
2017-08-20T10:49:15.112Z,8.2
2017-08-20T10:50:15.911Z,8.3
2017-08-20T10:51:16.712Z,9.4
2017-08-20T10:52:17.584Z,6.4
2017-08-20T10:53:18.390Z,5.8
2017-08-20T10:54:19.138Z,5.3
2017-08-20T10:55:21.808Z,8.8
2017-08-20T10:56:22.768Z,8.2
2017-08-20T10:57:23.586Z,7.3
2017-08-20T10:58:24.437Z,11.3
2017-08-20T10:59:25.207Z,4.8
2017-08-20T11:00:26.368Z,4.2
2017-08-20T11:01:27.166Z,5.2
2017-08-20T11:02:27.992Z,5.0
2017-08-20T11:03:28.727Z,8.2
2017-08-20T11:04:29.483Z,5.6
2017-08-20T11:05:30.631Z,5.4
2017-08-20T11:06:31.724Z,9.1
2017-08-20T11:07:32.412Z,8.0
2017-08-20T11:08:33.228Z,6.2
2017-08-20T11:09:34.039Z,10.4
2017-08-20T11:10:35.335Z,6.4
2017-08-20T11:11:36.185Z,6.7
2017-08-20T11:12:36.985Z,9.2
2017-08-20T11:13:37.780Z,6.6
2017-08-20T11:14:38.553Z,6.5
2017-08-20T11:15:39.707Z,6.9
2017-08-20T11:16:40.440Z,5.1
2017-08-20T11:17:41.195Z,5.2
2017-08-20T11:18:42.008Z,10.4
2017-08-20T11:19:42.840Z,8.1
2017-08-20T11:20:43.626Z,7.0
2017-08-20T11:21:44.366Z,9.9
2017-08-20T11:22:45.203Z,7.5
2017-08-20T11:23:46.032Z,9.0
2017-08-20T11:24:46.776Z,9.8
2017-08-20T11:25:47.871Z,5.5
2017-08-20T11:26:48.620Z,8.8
2017-08-20T11:27:49.429Z,8.3
2017-08-20T11:28:50.187Z,8.2
2017-08-20T11:29:51.013Z,7.7
2017-08-20T11:30:52.214Z,8.7
2017-08-20T11:31:53.009Z,6.8
2017-08-20T11:32:53.833Z,7.2
2017-08-20T11:33:54.571Z,7.9
2017-08-20T11:34:55.323Z,12.6
2017-08-20T11:35:56.407Z,6.2
2017-08-20T11:36:57.165Z,13.9
2017-08-20T11:37:57.993Z,9.7
2017-08-20T11:38:58.795Z,6.1
2017-08-20T11:39:59.551Z,4.2
2017-08-20T11:41:00.366Z,10.6
2017-08-20T11:42:01.112Z,13.0
2017-08-20T11:43:02.206Z,7.0
2017-08-20T11:44:03.070Z,13.2
2017-08-20T11:45:03.833Z,7.7
2017-08-20T11:46:04.604Z,7.5
2017-08-20T11:47:05.410Z,8.0
2017-08-20T11:48:06.502Z,10.2
2017-08-20T11:49:07.259Z,3.8
2017-08-20T11:50:08.015Z,9.1
2017-08-20T11:51:08.809Z,6.5
2017-08-20T11:52:09.562Z,7.2
2017-08-20T11:53:10.768Z,7.7
2017-08-20T11:54:11.517Z,12.4
2017-08-20T11:55:12.275Z,12.7
2017-08-20T11:56:13.008Z,6.8
2017-08-20T11:57:13.747Z,9.7
2017-08-20T11:58:14.842Z,7.0
2017-08-20T11:59:15.626Z,5.4
2017-08-20T12:00:16.362Z,9.8
2017-08-20T12:01:17.105Z,7.1
2017-08-20T12:02:17.847Z,10.0
2017-08-20T12:03:18.847Z,5.9
2017-08-20T12:04:19.646Z,5.6
2017-08-20T12:05:20.489Z,5.9
2017-08-20T12:06:21.230Z,1.7
2017-08-20T12:07:21.969Z,4.3
2017-08-20T12:08:23.062Z,4.1
2017-08-20T12:09:23.808Z,3.4
2017-08-20T12:10:24.630Z,4.2
2017-08-20T12:11:25.383Z,2.9
2017-08-20T12:12:26.133Z,3.8
2017-08-20T12:13:27.366Z,10.3
2017-08-20T12:14:28.176Z,5.6
2017-08-20T12:15:28.979Z,3.8
2017-08-20T12:16:29.716Z,6.1
2017-08-20T12:17:30.463Z,14.5
2017-08-20T12:18:31.658Z,9.1
2017-08-20T12:19:32.397Z,8.6
2017-08-20T12:20:33.210Z,6.1
2017-08-20T12:21:33.957Z,9.8
2017-08-20T12:22:34.707Z,5.8
2017-08-20T12:23:35.798Z,5.8
2017-08-20T12:24:36.534Z,6.4
2017-08-20T12:25:37.281Z,6.0
2017-08-20T12:26:38.032Z,5.2
2017-08-20T12:27:38.766Z,5.5
2017-08-20T12:28:39.917Z,9.1
2017-08-20T12:29:40.663Z,4.7
2017-08-20T12:30:41.395Z,5.5
2017-08-20T12:31:42.147Z,7.0
2017-08-20T12:32:42.888Z,5.6
2017-08-20T12:33:43.785Z,6.1
2017-08-20T12:34:44.514Z,4.7
2017-08-20T12:35:45.293Z,4.8
2017-08-20T12:36:46.087Z,2.3
2017-08-20T12:37:46.827Z,3.9
2017-08-20T12:38:47.642Z,6.9
2017-08-20T12:39:48.464Z,7.3
2017-08-20T12:40:49.199Z,3.0
2017-08-20T12:41:49.940Z,3.1
2017-08-20T12:42:50.732Z,5.8
2017-08-20T12:43:51.885Z,5.6
2017-08-20T12:44:52.672Z,3.1
2017-08-20T12:45:53.415Z,6.6
2017-08-20T12:46:54.250Z,7.2
2017-08-20T12:47:55.068Z,5.1
2017-08-20T12:48:55.986Z,2.7
2017-08-20T12:49:56.725Z,3.9
2017-08-20T12:50:57.474Z,5.2
2017-08-20T12:51:58.300Z,9.5
2017-08-20T12:52:59.040Z,8.2
2017-08-20T12:54:00.181Z,6.1
2017-08-20T12:55:01.010Z,5.8
2017-08-20T12:56:01.764Z,3.8
2017-08-20T12:57:02.502Z,5.4
2017-08-20T12:58:03.268Z,7.2
2017-08-20T12:59:04.347Z,7.0
2017-08-20T13:00:05.100Z,3.7
2017-08-20T13:01:05.842Z,5.8
2017-08-20T13:02:06.654Z,5.1
2017-08-20T13:03:07.442Z,5.6
2017-08-20T13:04:08.563Z,5.3
2017-08-20T13:05:09.303Z,4.7
2017-08-20T13:06:10.112Z,8.5
2017-08-20T13:07:10.851Z,6.5
2017-08-20T13:08:11.587Z,8.0
2017-08-20T13:09:12.676Z,2.9
2017-08-20T13:10:13.419Z,4.7
2017-08-20T13:11:14.167Z,5.8
2017-08-20T13:12:14.918Z,8.4
2017-08-20T13:13:15.669Z,4.8
2017-08-20T13:14:16.653Z,4.4
2017-08-20T13:15:17.421Z,6.7
2017-08-20T13:16:18.184Z,6.3
2017-08-20T13:17:18.921Z,7.8
2017-08-20T13:18:19.663Z,8.3
2017-08-20T13:19:20.593Z,4.7
2017-08-20T13:20:22.583Z,4.1
2017-08-20T13:21:24.092Z,4.5
2017-08-20T13:22:25.714Z,2.7
2017-08-20T13:23:28.073Z,3.6
2017-08-20T13:24:30.528Z,7.0
2017-08-20T13:25:31.382Z,3.4
2017-08-20T13:26:32.213Z,9.8